Portada
METAR-TAF:

METAR-TAF

Aeropuertos :

Aeropuerto de Latakia

Latakia, Siria

latitud: 35-32N, longitud: 035-46E, altitud: 7 m

Observación

El informe se hizo hace 32 minutos, a las 11:00 UTC
Viento 10 kt del oeste-suroeste
Temperatura 32°C
Humedad 67%
Presión 1003 hPa
Visibilidad 10 km o más
Nubes dispersas a una altura de 3000 ft

METAR: OSLK 191100Z 25010KT 9999 SCT030 32/25 Q1003

Hora: 14:32 (11:32 UTC)

Pronóstico

El informe se hizo hace 6 horas y 32 minutos, a las 05:00 UTC
Pronóstico válido del 19 a las 06 UTC al 20 a las 06 UTC
Viento 12 kt del suroeste
Visibilidad 10 km o más
sin nubes por debajo de 1500 m y sin presencia de cumulonimbus.
Temporalmente
del 19 a las 18 UTC al 20 a las 06 UTC
Viento 5 kt del este-noreste

TAF: OSLK 190500Z 1906/2006 23012KT CAVOK TEMPO 1918/2006 06005KT

Observaciones y pronósticos meteorológicos de más de 4000 aeropuertos (mensajes METAR y TAF).

Los puntos amarillos y rojos representan las estaciones disponibles.

Ponga el ratón en el punto deseado para ver el nombre de la estación.

Haga clic para ver las observaciones y los pronósticos meteorológicos.

Para cambiar el mapa : haga clic en los botones verdes con una cruz de color negro para hacer un zoom, en el botón verde con un guión para alejar o en las flechas verdes para mapas adyacentes.


METAR-TAF: